Cleveland, Ohio
Traffic Map
Current Weather Conditions
Cleveland, Ohio
Overcast
Overcast
-1°
Feels Like: -4°
Wind Chill: -4° Ceiling: 2500
Heat Index: -1° Visibility: 10mi
Dew Point: -5° Wind: 6mph
Humidity: 72% Direction: 240° (WSW)
Pressure: 30.27in Gusts: 0mph
Raw Report DataKBKL 210553Z 24005KT 10SM OVC025 M01/M05 A3027 RMK AO2 SLP257 T10061050 10000 21006 56007
Traffic Incident Summary
Active as of:
Severity:
Category:
InformationThere was an issue retrieving the traffic information for this location. Please try a different location or try again shortly.
Advertisements
Track Severe Weather on mobile